sensor_id;sensor_type;location;lat;lon;timestamp;temperature;humidity
45765;DHT22;31474;45.332;10.230;2022-07-29T00:01:22;24.40;99.90
45765;DHT22;31474;45.332;10.230;2022-07-29T00:03:48;24.50;99.90
45765;DHT22;31474;45.332;10.230;2022-07-29T00:06:14;24.40;99.90
45765;DHT22;31474;45.332;10.230;2022-07-29T00:08:40;24.40;99.90
45765;DHT22;31474;45.332;10.230;2022-07-29T00:11:06;24.40;99.90
45765;DHT22;31474;45.332;10.230;2022-07-29T00:13:31;24.40;99.90
45765;DHT22;31474;45.332;10.230;2022-07-29T00:15:57;24.50;99.90
45765;DHT22;31474;45.332;10.230;2022-07-29T00:18:23;24.50;99.90
45765;DHT22;31474;45.332;10.230;2022-07-29T00:20:48;24.40;99.90
45765;DHT22;31474;45.332;10.230;2022-07-29T00:23:14;24.50;99.90
45765;DHT22;31474;45.332;10.230;2022-07-29T00:25:39;24.50;99.90
45765;DHT22;31474;45.332;10.230;2022-07-29T00:28:05;24.60;99.90
45765;DHT22;31474;45.332;10.230;2022-07-29T00:30:31;24.60;99.90
45765;DHT22;31474;45.332;10.230;2022-07-29T00:32:56;24.70;99.90
45765;DHT22;31474;45.332;10.230;2022-07-29T00:35:22;24.70;99.90
45765;DHT22;31474;45.332;10.230;2022-07-29T00:38:06;24.80;99.90
45765;DHT22;31474;45.332;10.230;2022-07-29T00:40:32;24.70;99.90
45765;DHT22;31474;45.332;10.230;2022-07-29T00:42:57;24.70;99.90
45765;DHT22;31474;45.332;10.230;2022-07-29T00:45:23;24.80;99.90
45765;DHT22;31474;45.332;10.230;2022-07-29T00:47:50;24.90;99.90
45765;DHT22;31474;45.332;10.230;2022-07-29T00:50:16;24.90;99.90
45765;DHT22;31474;45.332;10.230;2022-07-29T00:52:42;24.90;99.90
45765;DHT22;31474;45.332;10.230;2022-07-29T00:55:12;24.80;99.90
45765;DHT22;31474;45.332;10.230;2022-07-29T00:57:40;24.70;99.90
45765;DHT22;31474;45.332;10.230;2022-07-29T01:00:08;24.70;99.90
45765;DHT22;31474;45.332;10.230;2022-07-29T01:02:35;24.60;99.90
45765;DHT22;31474;45.332;10.230;2022-07-29T01:05:02;24.60;99.90
45765;DHT22;31474;45.332;10.230;2022-07-29T01:07:29;24.60;99.90
45765;DHT22;31474;45.332;10.230;2022-07-29T01:09:55;24.70;99.90
45765;DHT22;31474;45.332;10.230;2022-07-29T01:12:24;24.70;99.90
45765;DHT22;31474;45.332;10.230;2022-07-29T01:14:51;24.70;99.90
45765;DHT22;31474;45.332;10.230;2022-07-29T01:17:24;24.80;99.90
45765;DHT22;31474;45.332;10.230;2022-07-29T01:31:55;24.90;99.90
45765;DHT22;31474;45.332;10.230;2022-07-29T01:34:22;24.90;99.90
45765;DHT22;31474;45.332;10.230;2022-07-29T01:36:57;24.90;99.90
45765;DHT22;31474;45.332;10.230;2022-07-29T01:39:30;24.90;99.90
45765;DHT22;31474;45.332;10.230;2022-07-29T01:42:08;24.80;99.90
45765;DHT22;31474;45.332;10.230;2022-07-29T01:45:02;25.00;99.90
45765;DHT22;31474;45.332;10.230;2022-07-29T01:47:33;25.00;99.90
45765;DHT22;31474;45.332;10.230;2022-07-29T01:50:00;24.90;99.90
45765;DHT22;31474;45.332;10.230;2022-07-29T01:52:39;25.00;99.90
45765;DHT22;31474;45.332;10.230;2022-07-29T01:55:13;25.00;99.90
45765;DHT22;31474;45.332;10.230;2022-07-29T01:57:42;25.00;99.90
45765;DHT22;31474;45.332;10.230;2022-07-29T02:00:09;24.90;99.90
45765;DHT22;31474;45.332;10.230;2022-07-29T02:02:35;24.90;99.90
45765;DHT22;31474;45.332;10.230;2022-07-29T02:05:03;24.90;99.90
45765;DHT22;31474;45.332;10.230;2022-07-29T02:07:33;24.80;99.90
45765;DHT22;31474;45.332;10.230;2022-07-29T02:10:00;24.90;99.90
45765;DHT22;31474;45.332;10.230;2022-07-29T02:12:29;24.90;99.90
45765;DHT22;31474;45.332;10.230;2022-07-29T02:14:59;24.90;99.90
45765;DHT22;31474;45.332;10.230;2022-07-29T02:18:02;24.90;99.90
45765;DHT22;31474;45.332;10.230;2022-07-29T02:20:29;24.90;99.90
45765;DHT22;31474;45.332;10.230;2022-07-29T02:22:57;24.90;99.90
45765;DHT22;31474;45.332;10.230;2022-07-29T02:25:24;24.90;99.90
45765;DHT22;31474;45.332;10.230;2022-07-29T02:27:50;24.90;99.90
45765;DHT22;31474;45.332;10.230;2022-07-29T02:30:17;24.90;99.90
45765;DHT22;31474;45.332;10.230;2022-07-29T02:32:45;24.80;99.90
45765;DHT22;31474;45.332;10.230;2022-07-29T02:35:13;24.80;99.90
45765;DHT22;31474;45.332;10.230;2022-07-29T02:37:40;24.90;99.90
45765;DHT22;31474;45.332;10.230;2022-07-29T02:40:09;24.80;99.90
45765;DHT22;31474;45.332;10.230;2022-07-29T02:42:36;24.80;99.90
45765;DHT22;31474;45.332;10.230;2022-07-29T02:45:04;24.80;99.90
45765;DHT22;31474;45.332;10.230;2022-07-29T02:47:42;24.80;99.90
45765;DHT22;31474;45.332;10.230;2022-07-29T02:52:52;24.80;99.90
45765;DHT22;31474;45.332;10.230;2022-07-29T02:55:26;24.80;99.90
45765;DHT22;31474;45.332;10.230;2022-07-29T03:00:36;24.90;99.90
45765;DHT22;31474;45.332;10.230;2022-07-29T03:03:07;24.80;99.90
45765;DHT22;31474;45.332;10.230;2022-07-29T03:05:34;24.80;99.90
45765;DHT22;31474;45.332;10.230;2022-07-29T03:08:03;24.70;99.90
45765;DHT22;31474;45.332;10.230;2022-07-29T03:10:30;24.70;99.90
45765;DHT22;31474;45.332;10.230;2022-07-29T03:12:57;24.70;99.90
45765;DHT22;31474;45.332;10.230;2022-07-29T03:15:24;24.70;99.90
45765;DHT22;31474;45.332;10.230;2022-07-29T03:17:51;24.70;99.90
45765;DHT22;31474;45.332;10.230;2022-07-29T03:20:17;24.70;99.90
45765;DHT22;31474;45.332;10.230;2022-07-29T03:22:44;24.70;99.90
45765;DHT22;31474;45.332;10.230;2022-07-29T03:25:16;24.70;99.90
45765;DHT22;31474;45.332;10.230;2022-07-29T03:27:43;24.70;99.90
45765;DHT22;31474;45.332;10.230;2022-07-29T03:30:10;24.70;99.90
45765;DHT22;31474;45.332;10.230;2022-07-29T03:32:36;24.70;99.90
45765;DHT22;31474;45.332;10.230;2022-07-29T03:35:03;24.70;99.90
45765;DHT22;31474;45.332;10.230;2022-07-29T03:37:29;24.70;99.90
45765;DHT22;31474;45.332;10.230;2022-07-29T03:39:57;24.60;99.90
45765;DHT22;31474;45.332;10.230;2022-07-29T03:42:26;24.60;99.90
45765;DHT22;31474;45.332;10.230;2022-07-29T03:44:54;24.60;99.90
45765;DHT22;31474;45.332;10.230;2022-07-29T03:47:23;24.60;99.90
45765;DHT22;31474;45.332;10.230;2022-07-29T03:49:52;24.60;99.90
45765;DHT22;31474;45.332;10.230;2022-07-29T03:52:20;24.60;99.90
45765;DHT22;31474;45.332;10.230;2022-07-29T03:54:46;24.60;99.90
45765;DHT22;31474;45.332;10.230;2022-07-29T03:57:13;24.50;99.90
45765;DHT22;31474;45.332;10.230;2022-07-29T03:59:40;24.50;99.90
45765;DHT22;31474;45.332;10.230;2022-07-29T04:02:09;24.50;99.90
45765;DHT22;31474;45.332;10.230;2022-07-29T04:04:35;24.50;99.90
45765;DHT22;31474;45.332;10.230;2022-07-29T04:07:01;24.50;99.90
45765;DHT22;31474;45.332;10.230;2022-07-29T04:09:27;24.50;99.90
45765;DHT22;31474;45.332;10.230;2022-07-29T04:11:52;24.50;99.90
45765;DHT22;31474;45.332;10.230;2022-07-29T04:14:18;24.40;99.90
45765;DHT22;31474;45.332;10.230;2022-07-29T04:16:44;24.40;99.90
45765;DHT22;31474;45.332;10.230;2022-07-29T04:19:09;24.40;99.90
45765;DHT22;31474;45.332;10.230;2022-07-29T04:21:39;24.40;99.90
45765;DHT22;31474;45.332;10.230;2022-07-29T04:24:05;24.40;99.90
45765;DHT22;31474;45.332;10.230;2022-07-29T04:26:31;24.50;99.90
45765;DHT22;31474;45.332;10.230;2022-07-29T04:28:56;24.50;99.90
45765;DHT22;31474;45.332;10.230;2022-07-29T04:31:22;24.60;99.90
45765;DHT22;31474;45.332;10.230;2022-07-29T04:33:48;24.60;99.90
45765;DHT22;31474;45.332;10.230;2022-07-29T04:36:13;24.70;99.90
45765;DHT22;31474;45.332;10.230;2022-07-29T04:38:39;24.60;99.90
45765;DHT22;31474;45.332;10.230;2022-07-29T04:41:05;24.60;99.90
45765;DHT22;31474;45.332;10.230;2022-07-29T04:43:33;24.60;99.90
45765;DHT22;31474;45.332;10.230;2022-07-29T04:45:59;24.60;99.90
45765;DHT22;31474;45.332;10.230;2022-07-29T04:48:25;24.70;99.90
45765;DHT22;31474;45.332;10.230;2022-07-29T04:50:51;24.70;99.90
45765;DHT22;31474;45.332;10.230;2022-07-29T04:53:17;24.70;99.90
45765;DHT22;31474;45.332;10.230;2022-07-29T04:55:43;24.80;99.90
45765;DHT22;31474;45.332;10.230;2022-07-29T04:58:10;24.80;99.90
45765;DHT22;31474;45.332;10.230;2022-07-29T05:00:36;24.70;99.90
45765;DHT22;31474;45.332;10.230;2022-07-29T05:03:02;24.70;99.90
45765;DHT22;31474;45.332;10.230;2022-07-29T05:05:27;24.70;99.90
45765;DHT22;31474;45.332;10.230;2022-07-29T05:07:53;24.60;99.90
45765;DHT22;31474;45.332;10.230;2022-07-29T05:10:19;24.60;99.90
45765;DHT22;31474;45.332;10.230;2022-07-29T05:12:45;24.70;99.90
45765;DHT22;31474;45.332;10.230;2022-07-29T05:15:10;24.80;99.90
45765;DHT22;31474;45.332;10.230;2022-07-29T05:17:36;24.80;99.90
45765;DHT22;31474;45.332;10.230;2022-07-29T05:20:03;25.00;99.90
45765;DHT22;31474;45.332;10.230;2022-07-29T05:22:29;25.00;99.90
45765;DHT22;31474;45.332;10.230;2022-07-29T05:24:54;25.10;99.90
45765;DHT22;31474;45.332;10.230;2022-07-29T05:27:20;25.20;99.90
45765;DHT22;31474;45.332;10.230;2022-07-29T05:29:45;25.40;99.90
45765;DHT22;31474;45.332;10.230;2022-07-29T05:32:14;25.60;99.90
45765;DHT22;31474;45.332;10.230;2022-07-29T05:34:41;25.70;99.90
45765;DHT22;31474;45.332;10.230;2022-07-29T05:37:06;25.80;99.90
45765;DHT22;31474;45.332;10.230;2022-07-29T05:39:32;25.90;99.90
45765;DHT22;31474;45.332;10.230;2022-07-29T05:41:58;25.90;99.90
45765;DHT22;31474;45.332;10.230;2022-07-29T05:44:23;25.90;99.90
45765;DHT22;31474;45.332;10.230;2022-07-29T05:46:49;26.10;99.90
45765;DHT22;31474;45.332;10.230;2022-07-29T05:49:15;26.10;99.90
45765;DHT22;31474;45.332;10.230;2022-07-29T05:51:40;26.20;99.90
45765;DHT22;31474;45.332;10.230;2022-07-29T05:54:06;26.30;99.90
45765;DHT22;31474;45.332;10.230;2022-07-29T05:56:31;26.40;99.90
45765;DHT22;31474;45.332;10.230;2022-07-29T05:58:57;26.40;99.90
45765;DHT22;31474;45.332;10.230;2022-07-29T06:01:23;26.20;99.90
45765;DHT22;31474;45.332;10.230;2022-07-29T06:03:49;26.10;99.90
45765;DHT22;31474;45.332;10.230;2022-07-29T06:06:15;26.20;99.90
45765;DHT22;31474;45.332;10.230;2022-07-29T06:08:40;26.30;99.90
45765;DHT22;31474;45.332;10.230;2022-07-29T06:11:06;26.40;99.90
45765;DHT22;31474;45.332;10.230;2022-07-29T06:13:33;26.60;99.90
45765;DHT22;31474;45.332;10.230;2022-07-29T06:15:59;26.70;99.90
45765;DHT22;31474;45.332;10.230;2022-07-29T06:18:25;26.80;99.90
45765;DHT22;31474;45.332;10.230;2022-07-29T06:20:51;27.00;99.90
45765;DHT22;31474;45.332;10.230;2022-07-29T06:23:17;27.10;99.90
45765;DHT22;31474;45.332;10.230;2022-07-29T06:25:43;27.30;99.90
45765;DHT22;31474;45.332;10.230;2022-07-29T06:28:09;27.40;99.90
45765;DHT22;31474;45.332;10.230;2022-07-29T06:30:35;27.60;99.90
45765;DHT22;31474;45.332;10.230;2022-07-29T06:33:00;27.70;99.90
45765;DHT22;31474;45.332;10.230;2022-07-29T06:35:27;27.70;99.90
45765;DHT22;31474;45.332;10.230;2022-07-29T06:37:53;27.90;99.90
45765;DHT22;31474;45.332;10.230;2022-07-29T06:40:19;28.00;99.90
45765;DHT22;31474;45.332;10.230;2022-07-29T06:43:03;28.00;99.90
45765;DHT22;31474;45.332;10.230;2022-07-29T06:45:29;28.20;99.90
45765;DHT22;31474;45.332;10.230;2022-07-29T06:47:54;28.20;99.90
45765;DHT22;31474;45.332;10.230;2022-07-29T06:50:20;28.30;99.90
45765;DHT22;31474;45.332;10.230;2022-07-29T06:52:47;28.40;99.90
45765;DHT22;31474;45.332;10.230;2022-07-29T06:55:13;28.30;99.90
45765;DHT22;31474;45.332;10.230;2022-07-29T06:57:39;28.40;99.90
45765;DHT22;31474;45.332;10.230;2022-07-29T07:00:06;28.40;99.90
45765;DHT22;31474;45.332;10.230;2022-07-29T07:02:32;28.50;99.90
45765;DHT22;31474;45.332;10.230;2022-07-29T07:04:57;28.60;99.90
45765;DHT22;31474;45.332;10.230;2022-07-29T07:07:24;28.60;99.90
45765;DHT22;31474;45.332;10.230;2022-07-29T07:09:50;28.80;99.90
45765;DHT22;31474;45.332;10.230;2022-07-29T07:12:15;28.80;99.90
45765;DHT22;31474;45.332;10.230;2022-07-29T07:14:41;29.00;99.90
45765;DHT22;31474;45.332;10.230;2022-07-29T07:17:07;29.00;99.90
45765;DHT22;31474;45.332;10.230;2022-07-29T07:19:33;29.00;99.90
45765;DHT22;31474;45.332;10.230;2022-07-29T07:21:58;29.10;99.90
45765;DHT22;31474;45.332;10.230;2022-07-29T07:24:24;29.10;99.90
45765;DHT22;31474;45.332;10.230;2022-07-29T07:26:50;29.20;99.90
45765;DHT22;31474;45.332;10.230;2022-07-29T07:29:16;29.40;99.90
45765;DHT22;31474;45.332;10.230;2022-07-29T07:31:42;29.60;99.90
45765;DHT22;31474;45.332;10.230;2022-07-29T07:34:07;29.60;99.90
45765;DHT22;31474;45.332;10.230;2022-07-29T07:36:33;29.60;99.70
45765;DHT22;31474;45.332;10.230;2022-07-29T07:38:59;29.60;99.90
45765;DHT22;31474;45.332;10.230;2022-07-29T07:41:24;29.60;99.90
45765;DHT22;31474;45.332;10.230;2022-07-29T07:43:50;29.70;99.50
45765;DHT22;31474;45.332;10.230;2022-07-29T07:46:16;29.90;99.90
45765;DHT22;31474;45.332;10.230;2022-07-29T07:48:41;30.00;99.90
45765;DHT22;31474;45.332;10.230;2022-07-29T07:51:07;30.10;99.40
45765;DHT22;31474;45.332;10.230;2022-07-29T07:53:33;30.10;99.20
45765;DHT22;31474;45.332;10.230;2022-07-29T07:55:59;30.10;99.60
45765;DHT22;31474;45.332;10.230;2022-07-29T07:58:25;30.10;99.30
45765;DHT22;31474;45.332;10.230;2022-07-29T08:00:50;30.10;99.50
45765;DHT22;31474;45.332;10.230;2022-07-29T08:03:16;30.10;98.90
45765;DHT22;31474;45.332;10.230;2022-07-29T08:05:42;30.10;98.90
45765;DHT22;31474;45.332;10.230;2022-07-29T08:08:07;30.30;99.20
45765;DHT22;31474;45.332;10.230;2022-07-29T08:10:33;30.30;98.70
45765;DHT22;31474;45.332;10.230;2022-07-29T08:13:21;30.40;99.00
45765;DHT22;31474;45.332;10.230;2022-07-29T08:15:47;30.60;98.50
45765;DHT22;31474;45.332;10.230;2022-07-29T08:18:13;30.70;98.40
45765;DHT22;31474;45.332;10.230;2022-07-29T08:20:39;30.80;98.40
45765;DHT22;31474;45.332;10.230;2022-07-29T08:23:07;30.70;97.90
45765;DHT22;31474;45.332;10.230;2022-07-29T08:25:36;30.60;98.00
45765;DHT22;31474;45.332;10.230;2022-07-29T08:28:01;30.80;97.50
45765;DHT22;31474;45.332;10.230;2022-07-29T08:30:27;30.70;96.80
45765;DHT22;31474;45.332;10.230;2022-07-29T08:32:53;30.80;97.50
45765;DHT22;31474;45.332;10.230;2022-07-29T08:35:20;31.00;97.40
45765;DHT22;31474;45.332;10.230;2022-07-29T08:37:47;31.20;97.50
45765;DHT22;31474;45.332;10.230;2022-07-29T08:40:13;31.20;96.20
45765;DHT22;31474;45.332;10.230;2022-07-29T08:42:39;31.20;96.10
45765;DHT22;31474;45.332;10.230;2022-07-29T08:45:06;31.30;96.40
45765;DHT22;31474;45.332;10.230;2022-07-29T08:47:33;31.30;94.90
45765;DHT22;31474;45.332;10.230;2022-07-29T08:49:59;31.00;95.70
45765;DHT22;31474;45.332;10.230;2022-07-29T08:52:25;30.90;96.20
45765;DHT22;31474;45.332;10.230;2022-07-29T08:54:53;30.90;96.70
45765;DHT22;31474;45.332;10.230;2022-07-29T08:57:19;31.10;96.70
45765;DHT22;31474;45.332;10.230;2022-07-29T08:59:47;31.10;96.60
45765;DHT22;31474;45.332;10.230;2022-07-29T09:02:20;31.10;96.20
45765;DHT22;31474;45.332;10.230;2022-07-29T09:04:47;30.90;95.20
45765;DHT22;31474;45.332;10.230;2022-07-29T09:07:16;30.90;96.40
45765;DHT22;31474;45.332;10.230;2022-07-29T09:09:43;31.00;96.10
45765;DHT22;31474;45.332;10.230;2022-07-29T09:12:09;31.10;96.30
45765;DHT22;31474;45.332;10.230;2022-07-29T09:14:40;31.30;96.00
45765;DHT22;31474;45.332;10.230;2022-07-29T09:17:06;31.40;95.20
45765;DHT22;31474;45.332;10.230;2022-07-29T09:19:37;31.30;96.10
45765;DHT22;31474;45.332;10.230;2022-07-29T09:22:06;31.20;94.70
45765;DHT22;31474;45.332;10.230;2022-07-29T09:24:44;31.20;95.60
45765;DHT22;31474;45.332;10.230;2022-07-29T09:27:19;31.40;96.00
45765;DHT22;31474;45.332;10.230;2022-07-29T09:30:07;31.50;96.00
45765;DHT22;31474;45.332;10.230;2022-07-29T09:32:55;31.70;94.60
45765;DHT22;31474;45.332;10.230;2022-07-29T09:35:22;31.80;94.20
45765;DHT22;31474;45.332;10.230;2022-07-29T09:37:49;31.80;94.40
45765;DHT22;31474;45.332;10.230;2022-07-29T09:40:17;31.80;94.70
45765;DHT22;31474;45.332;10.230;2022-07-29T09:42:44;31.70;94.20
45765;DHT22;31474;45.332;10.230;2022-07-29T09:45:10;31.70;94.10
45765;DHT22;31474;45.332;10.230;2022-07-29T09:47:45;31.70;95.10
45765;DHT22;31474;45.332;10.230;2022-07-29T09:50:11;31.80;94.10
45765;DHT22;31474;45.332;10.230;2022-07-29T09:52:51;31.70;93.90
45765;DHT22;31474;45.332;10.230;2022-07-29T09:55:17;31.60;94.10
45765;DHT22;31474;45.332;10.230;2022-07-29T09:57:44;31.70;95.10
45765;DHT22;31474;45.332;10.230;2022-07-29T10:00:15;31.80;95.60
45765;DHT22;31474;45.332;10.230;2022-07-29T10:02:44;31.90;94.90
45765;DHT22;31474;45.332;10.230;2022-07-29T10:07:48;31.70;93.70
45765;DHT22;31474;45.332;10.230;2022-07-29T10:10:28;31.90;94.80
45765;DHT22;31474;45.332;10.230;2022-07-29T10:13:02;32.00;93.90
45765;DHT22;31474;45.332;10.230;2022-07-29T10:15:32;32.00;94.40
45765;DHT22;31474;45.332;10.230;2022-07-29T10:17:59;32.00;95.20
45765;DHT22;31474;45.332;10.230;2022-07-29T10:20:27;32.10;95.40
45765;DHT22;31474;45.332;10.230;2022-07-29T10:22:53;32.20;94.80
45765;DHT22;31474;45.332;10.230;2022-07-29T10:25:20;32.30;94.80
45765;DHT22;31474;45.332;10.230;2022-07-29T10:27:47;32.20;94.70
45765;DHT22;31474;45.332;10.230;2022-07-29T10:30:14;32.10;94.20
45765;DHT22;31474;45.332;10.230;2022-07-29T10:35:33;32.10;93.70
45765;DHT22;31474;45.332;10.230;2022-07-29T10:46:25;32.20;94.30
45765;DHT22;31474;45.332;10.230;2022-07-29T10:49:10;32.20;94.50
45765;DHT22;31474;45.332;10.230;2022-07-29T10:51:56;32.20;94.00
45765;DHT22;31474;45.332;10.230;2022-07-29T10:59:43;32.10;95.20
45765;DHT22;31474;45.332;10.230;2022-07-29T11:05:08;32.50;93.90
45765;DHT22;31474;45.332;10.230;2022-07-29T11:07:36;32.60;94.80
45765;DHT22;31474;45.332;10.230;2022-07-29T11:15:13;32.80;94.40
45765;DHT22;31474;45.332;10.230;2022-07-29T11:23:00;32.60;93.30
45765;DHT22;31474;45.332;10.230;2022-07-29T11:25:26;32.50;93.30
45765;DHT22;31474;45.332;10.230;2022-07-29T11:27:54;32.30;93.90
45765;DHT22;31474;45.332;10.230;2022-07-29T11:30:20;32.20;93.40
45765;DHT22;31474;45.332;10.230;2022-07-29T11:32:46;32.20;93.70
45765;DHT22;31474;45.332;10.230;2022-07-29T11:35:22;32.30;93.50
45765;DHT22;31474;45.332;10.230;2022-07-29T11:38:23;32.40;93.70
45765;DHT22;31474;45.332;10.230;2022-07-29T11:43:53;32.60;92.90
45765;DHT22;31474;45.332;10.230;2022-07-29T11:46:55;32.50;92.80
45765;DHT22;31474;45.332;10.230;2022-07-29T11:49:23;32.50;93.60
45765;DHT22;31474;45.332;10.230;2022-07-29T11:51:53;32.50;93.90
45765;DHT22;31474;45.332;10.230;2022-07-29T11:54:29;32.60;93.10
45765;DHT22;31474;45.332;10.230;2022-07-29T11:56:57;32.60;92.80
45765;DHT22;31474;45.332;10.230;2022-07-29T11:59:24;32.70;93.50
45765;DHT22;31474;45.332;10.230;2022-07-29T12:01:58;32.80;93.50
45765;DHT22;31474;45.332;10.230;2022-07-29T12:04:24;32.90;93.10
45765;DHT22;31474;45.332;10.230;2022-07-29T12:06:54;32.90;93.40
45765;DHT22;31474;45.332;10.230;2022-07-29T12:09:20;32.60;92.70
45765;DHT22;31474;45.332;10.230;2022-07-29T12:11:47;32.60;93.30
45765;DHT22;31474;45.332;10.230;2022-07-29T12:14:29;32.50;93.00
45765;DHT22;31474;45.332;10.230;2022-07-29T12:16:55;32.70;93.50
45765;DHT22;31474;45.332;10.230;2022-07-29T12:19:21;32.70;93.60
45765;DHT22;31474;45.332;10.230;2022-07-29T12:21:51;32.80;93.90
45765;DHT22;31474;45.332;10.230;2022-07-29T12:24:18;32.90;93.70
45765;DHT22;31474;45.332;10.230;2022-07-29T12:29:19;32.80;93.30
45765;DHT22;31474;45.332;10.230;2022-07-29T12:31:45;32.80;93.70
45765;DHT22;31474;45.332;10.230;2022-07-29T12:34:13;33.00;94.30
45765;DHT22;31474;45.332;10.230;2022-07-29T12:36:41;33.00;93.00
45765;DHT22;31474;45.332;10.230;2022-07-29T12:39:08;32.90;93.20
45765;DHT22;31474;45.332;10.230;2022-07-29T12:41:35;32.90;93.20
45765;DHT22;31474;45.332;10.230;2022-07-29T12:44:00;33.00;93.20
45765;DHT22;31474;45.332;10.230;2022-07-29T12:46:27;33.00;93.60
45765;DHT22;31474;45.332;10.230;2022-07-29T12:48:53;33.10;93.40
45765;DHT22;31474;45.332;10.230;2022-07-29T12:51:36;33.10;92.30
45765;DHT22;31474;45.332;10.230;2022-07-29T12:56:28;32.80;92.60
45765;DHT22;31474;45.332;10.230;2022-07-29T12:58:54;32.80;92.50
45765;DHT22;31474;45.332;10.230;2022-07-29T13:01:20;32.80;92.70
45765;DHT22;31474;45.332;10.230;2022-07-29T13:03:52;32.90;92.70
45765;DHT22;31474;45.332;10.230;2022-07-29T13:13:56;32.50;92.40
45765;DHT22;31474;45.332;10.230;2022-07-29T13:16:21;32.40;91.70
45765;DHT22;31474;45.332;10.230;2022-07-29T13:18:47;32.40;92.80
45765;DHT22;31474;45.332;10.230;2022-07-29T13:21:15;32.50;93.10
45765;DHT22;31474;45.332;10.230;2022-07-29T13:23:41;32.60;92.60
45765;DHT22;31474;45.332;10.230;2022-07-29T13:26:09;32.50;92.20
45765;DHT22;31474;45.332;10.230;2022-07-29T13:28:36;32.50;92.40
45765;DHT22;31474;45.332;10.230;2022-07-29T13:31:02;32.50;92.60
45765;DHT22;31474;45.332;10.230;2022-07-29T13:33:28;32.50;92.90
45765;DHT22;31474;45.332;10.230;2022-07-29T13:35:54;32.60;93.10
45765;DHT22;31474;45.332;10.230;2022-07-29T13:38:20;32.60;92.90
45765;DHT22;31474;45.332;10.230;2022-07-29T13:40:45;32.50;92.70
45765;DHT22;31474;45.332;10.230;2022-07-29T13:43:11;32.30;92.30
45765;DHT22;31474;45.332;10.230;2022-07-29T13:45:37;32.10;92.80
45765;DHT22;31474;45.332;10.230;2022-07-29T13:48:03;32.00;92.20
45765;DHT22;31474;45.332;10.230;2022-07-29T13:50:29;31.90;92.90
45765;DHT22;31474;45.332;10.230;2022-07-29T13:52:54;32.00;92.80
45765;DHT22;31474;45.332;10.230;2022-07-29T13:55:20;32.10;93.00
45765;DHT22;31474;45.332;10.230;2022-07-29T13:57:46;32.30;92.80
45765;DHT22;31474;45.332;10.230;2022-07-29T14:00:13;32.30;92.90
45765;DHT22;31474;45.332;10.230;2022-07-29T14:02:38;32.30;92.90
45765;DHT22;31474;45.332;10.230;2022-07-29T14:05:08;32.20;93.00
45765;DHT22;31474;45.332;10.230;2022-07-29T14:07:35;32.10;93.30
45765;DHT22;31474;45.332;10.230;2022-07-29T14:10:01;32.10;93.30
45765;DHT22;31474;45.332;10.230;2022-07-29T14:12:26;32.10;93.30
45765;DHT22;31474;45.332;10.230;2022-07-29T14:14:52;32.00;92.70
45765;DHT22;31474;45.332;10.230;2022-07-29T14:17:18;31.90;92.40
45765;DHT22;31474;45.332;10.230;2022-07-29T14:19:43;31.90;92.40
45765;DHT22;31474;45.332;10.230;2022-07-29T14:22:09;31.70;92.70
45765;DHT22;31474;45.332;10.230;2022-07-29T14:24:36;31.70;92.90
45765;DHT22;31474;45.332;10.230;2022-07-29T14:27:02;31.70;93.10
45765;DHT22;31474;45.332;10.230;2022-07-29T14:29:28;31.60;93.20
45765;DHT22;31474;45.332;10.230;2022-07-29T14:31:54;31.60;93.40
45765;DHT22;31474;45.332;10.230;2022-07-29T14:34:20;31.60;93.60
45765;DHT22;31474;45.332;10.230;2022-07-29T14:36:45;31.50;93.70
45765;DHT22;31474;45.332;10.230;2022-07-29T14:39:11;31.40;93.70
45765;DHT22;31474;45.332;10.230;2022-07-29T14:41:37;31.30;93.90
45765;DHT22;31474;45.332;10.230;2022-07-29T14:44:04;31.30;93.90
45765;DHT22;31474;45.332;10.230;2022-07-29T14:46:29;31.20;94.00
45765;DHT22;31474;45.332;10.230;2022-07-29T14:48:55;31.20;93.90
45765;DHT22;31474;45.332;10.230;2022-07-29T14:51:20;31.20;94.00
45765;DHT22;31474;45.332;10.230;2022-07-29T14:53:46;31.20;94.10
45765;DHT22;31474;45.332;10.230;2022-07-29T14:56:12;31.10;94.10
45765;DHT22;31474;45.332;10.230;2022-07-29T14:58:38;31.10;94.10
45765;DHT22;31474;45.332;10.230;2022-07-29T15:01:03;30.90;94.10
45765;DHT22;31474;45.332;10.230;2022-07-29T15:03:29;30.80;94.10
45765;DHT22;31474;45.332;10.230;2022-07-29T15:05:55;30.80;94.20
45765;DHT22;31474;45.332;10.230;2022-07-29T15:08:20;30.80;94.30
45765;DHT22;31474;45.332;10.230;2022-07-29T15:10:46;30.70;94.30
45765;DHT22;31474;45.332;10.230;2022-07-29T15:13:12;30.60;94.30
45765;DHT22;31474;45.332;10.230;2022-07-29T15:15:38;30.50;94.50
45765;DHT22;31474;45.332;10.230;2022-07-29T15:18:03;30.50;94.60
45765;DHT22;31474;45.332;10.230;2022-07-29T15:20:29;30.40;95.00
45765;DHT22;31474;45.332;10.230;2022-07-29T15:22:55;30.10;96.10
45765;DHT22;31474;45.332;10.230;2022-07-29T15:25:22;29.90;97.40
45765;DHT22;31474;45.332;10.230;2022-07-29T15:27:48;29.70;97.30
45765;DHT22;31474;45.332;10.230;2022-07-29T15:30:13;29.60;97.80
45765;DHT22;31474;45.332;10.230;2022-07-29T15:32:45;29.50;98.60
45765;DHT22;31474;45.332;10.230;2022-07-29T15:35:11;29.40;99.10
45765;DHT22;31474;45.332;10.230;2022-07-29T15:37:38;29.40;99.50
45765;DHT22;31474;45.332;10.230;2022-07-29T15:40:07;29.30;99.90
45765;DHT22;31474;45.332;10.230;2022-07-29T15:42:35;29.20;99.90
45765;DHT22;31474;45.332;10.230;2022-07-29T15:45:01;29.10;99.90
45765;DHT22;31474;45.332;10.230;2022-07-29T15:47:28;29.10;99.90
45765;DHT22;31474;45.332;10.230;2022-07-29T15:49:54;29.00;99.90
45765;DHT22;31474;45.332;10.230;2022-07-29T15:52:21;28.90;99.90
45765;DHT22;31474;45.332;10.230;2022-07-29T15:54:46;28.80;99.90
45765;DHT22;31474;45.332;10.230;2022-07-29T15:57:13;28.60;99.90
45765;DHT22;31474;45.332;10.230;2022-07-29T15:59:38;28.40;99.90
45765;DHT22;31474;45.332;10.230;2022-07-29T16:02:04;28.20;99.90
45765;DHT22;31474;45.332;10.230;2022-07-29T16:04:30;28.10;99.90
45765;DHT22;31474;45.332;10.230;2022-07-29T16:06:56;28.00;99.90
45765;DHT22;31474;45.332;10.230;2022-07-29T16:09:22;28.00;99.90
45765;DHT22;31474;45.332;10.230;2022-07-29T16:11:47;28.00;99.90
45765;DHT22;31474;45.332;10.230;2022-07-29T16:14:16;28.00;99.90
45765;DHT22;31474;45.332;10.230;2022-07-29T16:16:42;27.90;99.90
45765;DHT22;31474;45.332;10.230;2022-07-29T16:19:08;27.80;99.90
45765;DHT22;31474;45.332;10.230;2022-07-29T16:21:35;27.80;99.90
45765;DHT22;31474;45.332;10.230;2022-07-29T16:24:01;27.80;99.90